Ide Min — PC8366 — position and weather

sailwx.info

Track history (hours):
 
Tides and Currents Weather Stations Pressure Air Temp Water Temp Dewpoint Dewpoint Depression Visibility Wind Speed Wind Dir Waves Ship Positions

Ide Min (Netherlands)

Ship's website: http://www.idemin.nl/english/english.html

Last reported at 2016-Jul-23 12:33 UTC. Time now 2016-Jul-23 23:05 UTC.
Position N 54°50' E 009°53'.

Length 40 m; draft 2.4 m.

MMSI: 244537000.

Date/timePositionNaut miles runAvg speedWind from/ knotsBaromVisibWave heightAir tempDewpointWater temp
2016-Jul-23 12:33N 54°50' E 009°53'3 1.3
2016-Jul-23 10:33N 54°50' E 009°49'2 0.1
2016-Jul-22 12:34N 54°50' E 009°53'5 4.7
2016-Jul-22 11:30N 54°51' E 010°02'10 5.0
2016-Jul-22 09:25N 54°59' E 010°13'6 5.3
2016-Jul-22 08:14N 55°01' E 010°23'4 5.0
2016-Jul-22 07:29N 55°01' E 010°29'1 0.5
2016-Jul-22 05:33N 55°01' E 010°28'0 0.0
2016-Jul-22 04:33N 55°01' E 010°28'0 0.0
2016-Jul-22 03:33N 55°01' E 010°28'0 0.0
2016-Jul-22 02:33N 55°01' E 010°28'0 0.0
2016-Jul-22 01:24N 55°01' E 010°28'0 0.0
2016-Jul-22 00:09N 55°01' E 010°28'0 0.0
2016-Jul-21 16:16N 55°01' E 010°28'2 1.0
2016-Jul-21 14:22N 55°02' E 010°26'9 1.0
2016-Jul-21 04:32N 55°03' E 010°10'7 0.2
2016-Jul-19 09:29N 54°57' E 010°16'4 0.2
2016-Jul-18 15:25N 54°55' E 010°09'13 6.9
2016-Jul-18 13:33N 54°43' E 010°05'6 6.5
2016-Jul-18 12:33N 54°36' E 010°03'11 5.3
2016-Jul-18 10:33N 54°28' E 009°52'1 0.9
2016-Jul-18 09:32N 54°28' E 009°50'0 0.0
2016-Jul-18 08:33N 54°28' E 009°50'0 0.0
2016-Jul-18 07:33N 54°28' E 009°50'0 0.0
2016-Jul-18 06:33N 54°28' E 009°50'0 0.0
2016-Jul-18 05:33N 54°28' E 009°50'0 0.0
2016-Jul-18 04:33N 54°28' E 009°50'0 0.0
2016-Jul-18 03:33N 54°28' E 009°50'0 0.0
2016-Jul-18 02:33N 54°28' E 009°50'0 0.0
2016-Jul-18 01:33N 54°28' E 009°50'0 0.0
2016-Jul-18 00:33N 54°28' E 009°50'0 0.0
2016-Jul-17 23:33N 54°28' E 009°50'0 0.0
2016-Jul-17 22:33N 54°28' E 009°50'0 0.0
2016-Jul-17 21:33N 54°28' E 009°50'0 0.0
2016-Jul-17 20:33N 54°28' E 009°50'0 0.0
2016-Jul-17 19:33N 54°28' E 009°50'10 3.0
2016-Jul-17 16:04N 54°33' E 010°07'12 3.2
2016-Jul-17 12:18N 54°40' E 010°24'3 3.8
2016-Jul-17 11:33N 54°42' E 010°28'4 4.3
2016-Jul-17 10:33N 54°43' E 010°35'4 3.7
2016-Jul-17 09:32N 54°45' E 010°40'0 0.0
2016-Jul-17 08:32N 54°45' E 010°40'0 0.0
2016-Jul-17 07:26N 54°45' E 010°40'0 0.0
2016-Jul-17 06:32N 54°45' E 010°40'0 0.0
2016-Jul-17 04:32N 54°45' E 010°40'0 0.0
2016-Jul-17 03:32N 54°45' E 010°40'0 0.0
2016-Jul-17 02:32N 54°45' E 010°40'0 0.0
2016-Jul-17 01:32N 54°45' E 010°40'0 0.0
2016-Jul-17 00:32N 54°45' E 010°40'0 0.0
2016-Jul-16 23:32N 54°45' E 010°40'0 0.0
2016-Jul-16 22:29N 54°45' E 010°40'0 0.0
2016-Jul-16 21:32N 54°45' E 010°40'0 0.0
2016-Jul-16 20:29N 54°45' E 010°40'0 0.0
2016-Jul-16 19:33N 54°45' E 010°40'0 0.0
2016-Jul-16 18:33N 54°45' E 010°40'2 1.6
2016-Jul-16 17:33N 54°44' E 010°38'4 4.3
2016-Jul-16 16:33N 54°42' E 010°32'6 6.3
2016-Jul-16 15:34N 54°37' E 010°24'7 7.0
2016-Jul-16 14:33N 54°32' E 010°17'6 6.5
2016-Jul-16 13:33N 54°26' E 010°12'4 3.9
2016-Jul-16 12:33N 54°22' E 010°10'0 0.3
2016-Jul-16 11:33N 54°22' E 010°09'0 0.0
2016-Jul-16 10:33N 54°22' E 010°09'0 0.0
2016-Jul-16 09:32N 54°22' E 010°09'0 0.0
2016-Jul-16 08:32N 54°22' E 010°09'0 0.0
2016-Jul-16 07:32N 54°22' E 010°09'0 0.0
2016-Jul-16 06:32N 54°22' E 010°09'0 0.0
2016-Jul-16 04:32N 54°22' E 010°09'0 0.0
2016-Jul-16 03:32N 54°22' E 010°09'0 0.0
2016-Jul-16 02:32N 54°22' E 010°09'0 0.0
2016-Jul-16 01:32N 54°22' E 010°09'0 0.0
2016-Jul-16 00:32N 54°22' E 010°09'0 0.0
2016-Jul-15 23:32N 54°22' E 010°09'0 0.0
2016-Jul-15 22:32N 54°22' E 010°09'0 0.0
2016-Jul-15 21:32N 54°22' E 010°09'0 0.0
2016-Jul-15 20:32N 54°22' E 010°09'0 0.0
2016-Jul-15 19:32N 54°22' E 010°09'0 0.0
2016-Jul-15 18:32N 54°22' E 010°09'0 0.0
2016-Jul-15 17:32N 54°22' E 010°09'0 0.0
2016-Jul-15 16:32N 54°22' E 010°09'0 0.0
2016-Jul-15 15:32N 54°22' E 010°09'0 0.0
2016-Jul-15 14:32N 54°22' E 010°09'0 0.0
2016-Jul-15 13:32N 54°22' E 010°09'0 0.0
2016-Jul-15 12:32N 54°22' E 010°09'1 0.7
2016-Jul-15 11:33N 54°22' E 010°10'7 6.8
2016-Jul-15 10:33N 54°29' E 010°12'12 5.8
2016-Jul-15 08:30N 54°28' E 009°52'1 0.9
2016-Jul-15 07:30N 54°28' E 009°50'0 0.0
2016-Jul-15 06:33N 54°28' E 009°50'0 0.0
2016-Jul-15 05:33N 54°28' E 009°50'0 0.0
2016-Jul-15 04:33N 54°28' E 009°50'0 0.0
2016-Jul-15 03:30N 54°28' E 009°50'0 0.0
2016-Jul-15 02:33N 54°28' E 009°50'0 0.0
2016-Jul-15 01:33N 54°28' E 009°50'0 0.0
2016-Jul-15 00:18N 54°28' E 009°50'0 0.0
2016-Jul-14 23:33N 54°28' E 009°50'0 0.0
2016-Jul-14 22:33N 54°28' E 009°50'0 0.0
2016-Jul-14 21:33N 54°28' E 009°50'0 0.0
2016-Jul-14 20:33N 54°28' E 009°50'0 0.0
2016-Jul-14 19:33N 54°28' E 009°50'0 0.0
2016-Jul-14 18:33N 54°28' E 009°50'0 0.0
2016-Jul-14 17:33N 54°28' E 009°50'0 0.0
2016-Jul-14 16:33N 54°28' E 009°50'8 4.0
2016-Jul-14 14:33N 54°32' E 010°03'7 7.0
2016-Jul-14 13:32N 54°39' E 010°04'  
Track history (hours):
 
Tides and Currents Weather Stations Pressure Air Temp Water Temp Dewpoint Dewpoint Depression Visibility Wind Speed Wind Dir Waves Ship Positions

Ide Min (Netherlands)

Ship's website: http://www.idemin.nl/english/english.html

Last reported at 2016-Jul-23 12:33 UTC. Time now 2016-Jul-23 23:05 UTC.
Position N 54°50' E 009°53'.

Length 40 m; draft 2.4 m.

MMSI: 244537000.

Date/timePositionNaut miles runAvg speedWind from/ knotsBaromVisibWave heightAir tempDewpointWater temp
2016-Jul-23 12:33N 54°50' E 009°53'3 1.3
2016-Jul-23 10:33N 54°50' E 009°49'2 0.1
2016-Jul-22 12:34N 54°50' E 009°53'5 4.7
2016-Jul-22 11:30N 54°51' E 010°02'10 5.0
2016-Jul-22 09:25N 54°59' E 010°13'6 5.3
2016-Jul-22 08:14N 55°01' E 010°23'4 5.0
2016-Jul-22 07:29N 55°01' E 010°29'1 0.5
2016-Jul-22 05:33N 55°01' E 010°28'0 0.0
2016-Jul-22 04:33N 55°01' E 010°28'0 0.0
2016-Jul-22 03:33N 55°01' E 010°28'0 0.0
2016-Jul-22 02:33N 55°01' E 010°28'0 0.0
2016-Jul-22 01:24N 55°01' E 010°28'0 0.0
2016-Jul-22 00:09N 55°01' E 010°28'0 0.0
2016-Jul-21 16:16N 55°01' E 010°28'2 1.0
2016-Jul-21 14:22N 55°02' E 010°26'9 1.0
2016-Jul-21 04:32N 55°03' E 010°10'7 0.2
2016-Jul-19 09:29N 54°57' E 010°16'4 0.2
2016-Jul-18 15:25N 54°55' E 010°09'13 6.9
2016-Jul-18 13:33N 54°43' E 010°05'6 6.5
2016-Jul-18 12:33N 54°36' E 010°03'11 5.3
2016-Jul-18 10:33N 54°28' E 009°52'1 0.9
2016-Jul-18 09:32N 54°28' E 009°50'0 0.0
2016-Jul-18 08:33N 54°28' E 009°50'0 0.0
2016-Jul-18 07:33N 54°28' E 009°50'0 0.0
2016-Jul-18 06:33N 54°28' E 009°50'0 0.0
2016-Jul-18 05:33N 54°28' E 009°50'0 0.0
2016-Jul-18 04:33N 54°28' E 009°50'0 0.0
2016-Jul-18 03:33N 54°28' E 009°50'0 0.0
2016-Jul-18 02:33N 54°28' E 009°50'0 0.0
2016-Jul-18 01:33N 54°28' E 009°50'0 0.0
2016-Jul-18 00:33N 54°28' E 009°50'0 0.0
2016-Jul-17 23:33N 54°28' E 009°50'0 0.0
2016-Jul-17 22:33N 54°28' E 009°50'0 0.0
2016-Jul-17 21:33N 54°28' E 009°50'0 0.0
2016-Jul-17 20:33N 54°28' E 009°50'0 0.0
2016-Jul-17 19:33N 54°28' E 009°50'10 3.0
2016-Jul-17 16:04N 54°33' E 010°07'12 3.2
2016-Jul-17 12:18N 54°40' E 010°24'3 3.8
2016-Jul-17 11:33N 54°42' E 010°28'4 4.3
2016-Jul-17 10:33N 54°43' E 010°35'4 3.7
2016-Jul-17 09:32N 54°45' E 010°40'0 0.0
2016-Jul-17 08:32N 54°45' E 010°40'0 0.0
2016-Jul-17 07:26N 54°45' E 010°40'0 0.0
2016-Jul-17 06:32N 54°45' E 010°40'0 0.0
2016-Jul-17 04:32N 54°45' E 010°40'0 0.0
2016-Jul-17 03:32N 54°45' E 010°40'0 0.0
2016-Jul-17 02:32N 54°45' E 010°40'0 0.0
2016-Jul-17 01:32N 54°45' E 010°40'0 0.0
2016-Jul-17 00:32N 54°45' E 010°40'0 0.0
2016-Jul-16 23:32N 54°45' E 010°40'0 0.0
2016-Jul-16 22:29N 54°45' E 010°40'0 0.0
2016-Jul-16 21:32N 54°45' E 010°40'0 0.0
2016-Jul-16 20:29N 54°45' E 010°40'0 0.0
2016-Jul-16 19:33N 54°45' E 010°40'0 0.0
2016-Jul-16 18:33N 54°45' E 010°40'2 1.6
2016-Jul-16 17:33N 54°44' E 010°38'4 4.3
2016-Jul-16 16:33N 54°42' E 010°32'6 6.3
2016-Jul-16 15:34N 54°37' E 010°24'7 7.0
2016-Jul-16 14:33N 54°32' E 010°17'6 6.5
2016-Jul-16 13:33N 54°26' E 010°12'4 3.9
2016-Jul-16 12:33N 54°22' E 010°10'0 0.3
2016-Jul-16 11:33N 54°22' E 010°09'0 0.0
2016-Jul-16 10:33N 54°22' E 010°09'0 0.0
2016-Jul-16 09:32N 54°22' E 010°09'0 0.0
2016-Jul-16 08:32N 54°22' E 010°09'0 0.0
2016-Jul-16 07:32N 54°22' E 010°09'0 0.0
2016-Jul-16 06:32N 54°22' E 010°09'0 0.0
2016-Jul-16 04:32N 54°22' E 010°09'0 0.0
2016-Jul-16 03:32N 54°22' E 010°09'0 0.0
2016-Jul-16 02:32N 54°22' E 010°09'0 0.0
2016-Jul-16 01:32N 54°22' E 010°09'0 0.0
2016-Jul-16 00:32N 54°22' E 010°09'0 0.0
2016-Jul-15 23:32N 54°22' E 010°09'0 0.0
2016-Jul-15 22:32N 54°22' E 010°09'0 0.0
2016-Jul-15 21:32N 54°22' E 010°09'0 0.0
2016-Jul-15 20:32N 54°22' E 010°09'0 0.0
2016-Jul-15 19:32N 54°22' E 010°09'0 0.0
2016-Jul-15 18:32N 54°22' E 010°09'0 0.0
2016-Jul-15 17:32N 54°22' E 010°09'0 0.0
2016-Jul-15 16:32N 54°22' E 010°09'0 0.0
2016-Jul-15 15:32N 54°22' E 010°09'0 0.0
2016-Jul-15 14:32N 54°22' E 010°09'0 0.0
2016-Jul-15 13:32N 54°22' E 010°09'0 0.0
2016-Jul-15 12:32N 54°22' E 010°09'1 0.7
2016-Jul-15 11:33N 54°22' E 010°10'7 6.8
2016-Jul-15 10:33N 54°29' E 010°12'12 5.8
2016-Jul-15 08:30N 54°28' E 009°52'1 0.9
2016-Jul-15 07:30N 54°28' E 009°50'0 0.0
2016-Jul-15 06:33N 54°28' E 009°50'0 0.0
2016-Jul-15 05:33N 54°28' E 009°50'0 0.0
2016-Jul-15 04:33N 54°28' E 009°50'0 0.0
2016-Jul-15 03:30N 54°28' E 009°50'0 0.0
2016-Jul-15 02:33N 54°28' E 009°50'0 0.0
2016-Jul-15 01:33N 54°28' E 009°50'0 0.0
2016-Jul-15 00:18N 54°28' E 009°50'0 0.0
2016-Jul-14 23:33N 54°28' E 009°50'0 0.0
2016-Jul-14 22:33N 54°28' E 009°50'0 0.0
2016-Jul-14 21:33N 54°28' E 009°50'0 0.0
2016-Jul-14 20:33N 54°28' E 009°50'0 0.0
2016-Jul-14 19:33N 54°28' E 009°50'0 0.0
2016-Jul-14 18:33N 54°28' E 009°50'0 0.0
2016-Jul-14 17:33N 54°28' E 009°50'0 0.0
2016-Jul-14 16:33N 54°28' E 009°50'8 4.0
2016-Jul-14 14:33N 54°32' E 010°03'7 7.0
2016-Jul-14 13:32N 54°39' E 010°04'  

Dump ship's entire track history